EHLW

Leeuwarden Air Base Airport

Leeuwarden, The Netherlands
METAR EHLW 241155Z AUTO 10015KT 040V150 9999 OVC022 01/M04 Q1029 WHT
Observed Flight Rules
Feb-24 @ 11:55 UTC (29 minutes ago) Marginal Visual Flight Rules
Wind Visibility Clouds
100° at 15 knots 10,000+ meters
  • Overcast at 2,200' AGL
Temperatures Readings
Current 1°C / 34°F
Dewpoint -4°C / 25°F
Humidity 70%
Altimeter 30.38" Hg
Pressure 1029 hPa
Elevation 2
METAR EHLW 241155Z AUTO 10015KT 040V150 9999 OVC022 01/M04 Q1029 WHT
Observed Flight Rules
Feb-24 @ 11:55 UTC
(29 minutes ago)
MVFR
Wind Visibility
100° at 15 knots 10,000+ meters
Clouds
  • Overcast at 2,200' AGL
Temperature Dewpoint
1°C / 34°F -4°C / 25°F
Humidity Altimeter Pressure
70% 30.38" Hg 1029 hPa